sensor_id;sensor_type;location;lat;lon;timestamp;temperature;humidity
16263;DHT22;8239;48.594;8.598;2023-06-19T00:00:08;19.20;77.10
16263;DHT22;8239;48.594;8.598;2023-06-19T00:02:38;19.20;77.40
16263;DHT22;8239;48.594;8.598;2023-06-19T00:05:06;19.10;77.50
16263;DHT22;8239;48.594;8.598;2023-06-19T00:07:33;19.00;77.80
16263;DHT22;8239;48.594;8.598;2023-06-19T00:10:02;18.90;78.10
16263;DHT22;8239;48.594;8.598;2023-06-19T00:12:28;18.90;78.50
16263;DHT22;8239;48.594;8.598;2023-06-19T00:14:55;18.80;78.70
16263;DHT22;8239;48.594;8.598;2023-06-19T00:17:22;18.70;79.10
16263;DHT22;8239;48.594;8.598;2023-06-19T00:19:52;18.60;79.70
16263;DHT22;8239;48.594;8.598;2023-06-19T00:22:19;18.50;80.30
16263;DHT22;8239;48.594;8.598;2023-06-19T00:24:46;18.50;80.90
16263;DHT22;8239;48.594;8.598;2023-06-19T00:27:14;18.40;81.50
16263;DHT22;8239;48.594;8.598;2023-06-19T00:29:41;18.40;82.10
16263;DHT22;8239;48.594;8.598;2023-06-19T00:32:08;18.40;82.80
16263;DHT22;8239;48.594;8.598;2023-06-19T00:34:35;18.40;83.60
16263;DHT22;8239;48.594;8.598;2023-06-19T00:37:04;18.40;84.40
16263;DHT22;8239;48.594;8.598;2023-06-19T00:39:31;18.50;81.90
16263;DHT22;8239;48.594;8.598;2023-06-19T00:41:58;18.80;79.30
16263;DHT22;8239;48.594;8.598;2023-06-19T00:44:26;19.20;77.40
16263;DHT22;8239;48.594;8.598;2023-06-19T00:46:58;19.50;76.30
16263;DHT22;8239;48.594;8.598;2023-06-19T00:49:25;19.70;75.60
16263;DHT22;8239;48.594;8.598;2023-06-19T00:51:52;19.80;77.50
16263;DHT22;8239;48.594;8.598;2023-06-19T00:54:20;19.90;78.90
16263;DHT22;8239;48.594;8.598;2023-06-19T00:56:47;20.00;80.10
16263;DHT22;8239;48.594;8.598;2023-06-19T00:59:16;20.00;80.90
16263;DHT22;8239;48.594;8.598;2023-06-19T01:01:44;20.00;81.30
16263;DHT22;8239;48.594;8.598;2023-06-19T01:04:12;19.90;81.80
16263;DHT22;8239;48.594;8.598;2023-06-19T01:06:46;19.90;82.40
16263;DHT22;8239;48.594;8.598;2023-06-19T01:09:18;19.80;83.20
16263;DHT22;8239;48.594;8.598;2023-06-19T01:11:48;19.70;83.40
16263;DHT22;8239;48.594;8.598;2023-06-19T01:14:21;19.70;83.40
16263;DHT22;8239;48.594;8.598;2023-06-19T01:16:49;19.60;83.50
16263;DHT22;8239;48.594;8.598;2023-06-19T01:19:19;19.50;83.90
16263;DHT22;8239;48.594;8.598;2023-06-19T01:21:46;19.50;84.20
16263;DHT22;8239;48.594;8.598;2023-06-19T01:24:15;19.50;84.60
16263;DHT22;8239;48.594;8.598;2023-06-19T01:26:42;19.40;85.00
16263;DHT22;8239;48.594;8.598;2023-06-19T01:29:12;19.40;85.50
16263;DHT22;8239;48.594;8.598;2023-06-19T01:31:45;19.40;85.90
16263;DHT22;8239;48.594;8.598;2023-06-19T01:34:17;19.30;86.50
16263;DHT22;8239;48.594;8.598;2023-06-19T01:36:46;19.30;87.10
16263;DHT22;8239;48.594;8.598;2023-06-19T01:39:17;19.30;87.30
16263;DHT22;8239;48.594;8.598;2023-06-19T01:41:45;19.30;87.50
16263;DHT22;8239;48.594;8.598;2023-06-19T01:44:13;19.30;88.40
16263;DHT22;8239;48.594;8.598;2023-06-19T01:46:40;19.20;89.60
16263;DHT22;8239;48.594;8.598;2023-06-19T01:49:08;19.20;90.00
16263;DHT22;8239;48.594;8.598;2023-06-19T01:51:36;19.20;90.30
16263;DHT22;8239;48.594;8.598;2023-06-19T01:54:03;19.10;90.50
16263;DHT22;8239;48.594;8.598;2023-06-19T01:56:33;19.10;90.70
16263;DHT22;8239;48.594;8.598;2023-06-19T01:58:59;19.00;91.00
16263;DHT22;8239;48.594;8.598;2023-06-19T02:01:26;19.00;91.30
16263;DHT22;8239;48.594;8.598;2023-06-19T02:03:53;18.90;91.60
16263;DHT22;8239;48.594;8.598;2023-06-19T02:06:20;18.90;92.30
16263;DHT22;8239;48.594;8.598;2023-06-19T02:08:48;18.90;92.30
16263;DHT22;8239;48.594;8.598;2023-06-19T02:11:15;18.80;92.70
16263;DHT22;8239;48.594;8.598;2023-06-19T02:13:43;18.80;93.00
16263;DHT22;8239;48.594;8.598;2023-06-19T02:16:10;18.80;93.60
16263;DHT22;8239;48.594;8.598;2023-06-19T02:18:37;18.70;94.00
16263;DHT22;8239;48.594;8.598;2023-06-19T02:21:04;18.70;94.40
16263;DHT22;8239;48.594;8.598;2023-06-19T02:23:31;18.60;94.80
16263;DHT22;8239;48.594;8.598;2023-06-19T02:25:58;18.60;95.10
16263;DHT22;8239;48.594;8.598;2023-06-19T02:28:25;18.50;95.50
16263;DHT22;8239;48.594;8.598;2023-06-19T02:30:54;18.50;95.80
16263;DHT22;8239;48.594;8.598;2023-06-19T02:33:21;18.50;96.20
16263;DHT22;8239;48.594;8.598;2023-06-19T02:35:48;18.50;96.50
16263;DHT22;8239;48.594;8.598;2023-06-19T02:38:15;18.40;96.90
16263;DHT22;8239;48.594;8.598;2023-06-19T02:40:44;18.50;97.40
16263;DHT22;8239;48.594;8.598;2023-06-19T02:43:11;18.40;97.50
16263;DHT22;8239;48.594;8.598;2023-06-19T02:45:38;18.40;97.70
16263;DHT22;8239;48.594;8.598;2023-06-19T02:48:06;18.40;97.80
16263;DHT22;8239;48.594;8.598;2023-06-19T02:50:33;18.40;98.00
16263;DHT22;8239;48.594;8.598;2023-06-19T02:53:01;18.30;97.90
16263;DHT22;8239;48.594;8.598;2023-06-19T02:55:27;18.30;98.40
16263;DHT22;8239;48.594;8.598;2023-06-19T02:57:54;18.30;98.60
16263;DHT22;8239;48.594;8.598;2023-06-19T03:00:21;18.20;99.00
16263;DHT22;8239;48.594;8.598;2023-06-19T03:02:48;18.20;99.70
16263;DHT22;8239;48.594;8.598;2023-06-19T03:05:18;18.00;99.90
16263;DHT22;8239;48.594;8.598;2023-06-19T03:07:44;17.90;99.90
16263;DHT22;8239;48.594;8.598;2023-06-19T03:10:12;17.70;99.90
16263;DHT22;8239;48.594;8.598;2023-06-19T03:12:39;17.60;99.90
16263;DHT22;8239;48.594;8.598;2023-06-19T03:15:06;17.50;99.90
16263;DHT22;8239;48.594;8.598;2023-06-19T03:17:33;17.30;99.90
16263;DHT22;8239;48.594;8.598;2023-06-19T03:20:00;17.30;99.90
16263;DHT22;8239;48.594;8.598;2023-06-19T03:22:32;17.20;99.90
16263;DHT22;8239;48.594;8.598;2023-06-19T03:24:59;17.10;99.90
16263;DHT22;8239;48.594;8.598;2023-06-19T03:27:26;17.00;99.90
16263;DHT22;8239;48.594;8.598;2023-06-19T03:29:54;17.00;99.90
16263;DHT22;8239;48.594;8.598;2023-06-19T03:32:21;16.90;99.90
16263;DHT22;8239;48.594;8.598;2023-06-19T03:34:48;16.90;99.90
16263;DHT22;8239;48.594;8.598;2023-06-19T03:37:15;16.80;99.90
16263;DHT22;8239;48.594;8.598;2023-06-19T03:39:44;16.80;99.90
16263;DHT22;8239;48.594;8.598;2023-06-19T03:42:11;16.70;99.90
16263;DHT22;8239;48.594;8.598;2023-06-19T03:44:38;16.70;99.90
16263;DHT22;8239;48.594;8.598;2023-06-19T03:47:06;16.70;99.90
16263;DHT22;8239;48.594;8.598;2023-06-19T03:49:33;16.60;99.90
16263;DHT22;8239;48.594;8.598;2023-06-19T03:52:01;16.70;99.90
16263;DHT22;8239;48.594;8.598;2023-06-19T03:54:28;16.70;99.90
16263;DHT22;8239;48.594;8.598;2023-06-19T03:56:56;16.70;99.90
16263;DHT22;8239;48.594;8.598;2023-06-19T03:59:23;16.70;99.90
16263;DHT22;8239;48.594;8.598;2023-06-19T04:01:50;16.80;99.90
16263;DHT22;8239;48.594;8.598;2023-06-19T04:04:17;16.80;99.90
16263;DHT22;8239;48.594;8.598;2023-06-19T04:06:44;16.80;99.90
16263;DHT22;8239;48.594;8.598;2023-06-19T04:09:12;16.90;99.90
16263;DHT22;8239;48.594;8.598;2023-06-19T04:11:39;16.90;99.90
16263;DHT22;8239;48.594;8.598;2023-06-19T04:14:07;17.00;99.90
16263;DHT22;8239;48.594;8.598;2023-06-19T04:16:35;17.10;99.90
16263;DHT22;8239;48.594;8.598;2023-06-19T04:19:02;17.20;99.90
16263;DHT22;8239;48.594;8.598;2023-06-19T04:21:29;17.30;99.90
16263;DHT22;8239;48.594;8.598;2023-06-19T04:23:56;17.30;99.90
16263;DHT22;8239;48.594;8.598;2023-06-19T04:26:23;17.40;99.90
16263;DHT22;8239;48.594;8.598;2023-06-19T04:28:50;17.50;99.90
16263;DHT22;8239;48.594;8.598;2023-06-19T04:31:18;17.60;99.90
16263;DHT22;8239;48.594;8.598;2023-06-19T04:33:45;17.70;99.90
16263;DHT22;8239;48.594;8.598;2023-06-19T04:36:12;17.80;99.90
16263;DHT22;8239;48.594;8.598;2023-06-19T04:38:39;17.90;99.90
16263;DHT22;8239;48.594;8.598;2023-06-19T04:41:06;18.00;99.90
16263;DHT22;8239;48.594;8.598;2023-06-19T04:43:33;18.10;99.90
16263;DHT22;8239;48.594;8.598;2023-06-19T04:46:00;18.30;99.90
16263;DHT22;8239;48.594;8.598;2023-06-19T04:48:37;18.30;99.90
16263;DHT22;8239;48.594;8.598;2023-06-19T04:51:06;18.40;99.90
16263;DHT22;8239;48.594;8.598;2023-06-19T04:53:33;18.40;99.90
16263;DHT22;8239;48.594;8.598;2023-06-19T04:56:00;18.40;99.90
16263;DHT22;8239;48.594;8.598;2023-06-19T04:58:27;18.30;99.90
16263;DHT22;8239;48.594;8.598;2023-06-19T05:00:54;18.30;99.90
16263;DHT22;8239;48.594;8.598;2023-06-19T05:03:21;18.30;99.90
16263;DHT22;8239;48.594;8.598;2023-06-19T05:05:50;18.30;99.90
16263;DHT22;8239;48.594;8.598;2023-06-19T05:08:17;18.30;99.90
16263;DHT22;8239;48.594;8.598;2023-06-19T05:10:44;18.30;99.90
16263;DHT22;8239;48.594;8.598;2023-06-19T05:13:11;18.30;99.90
16263;DHT22;8239;48.594;8.598;2023-06-19T05:15:38;18.20;99.90
16263;DHT22;8239;48.594;8.598;2023-06-19T05:18:05;18.20;99.90
16263;DHT22;8239;48.594;8.598;2023-06-19T05:20:32;18.20;99.90
16263;DHT22;8239;48.594;8.598;2023-06-19T05:23:00;18.20;99.90
16263;DHT22;8239;48.594;8.598;2023-06-19T05:25:27;18.20;99.90
16263;DHT22;8239;48.594;8.598;2023-06-19T05:27:54;18.20;99.90
16263;DHT22;8239;48.594;8.598;2023-06-19T05:30:21;18.20;99.90
16263;DHT22;8239;48.594;8.598;2023-06-19T05:32:49;18.30;99.90
16263;DHT22;8239;48.594;8.598;2023-06-19T05:35:20;18.40;99.90
16263;DHT22;8239;48.594;8.598;2023-06-19T05:37:51;18.40;99.90
16263;DHT22;8239;48.594;8.598;2023-06-19T05:40:19;18.50;99.90
16263;DHT22;8239;48.594;8.598;2023-06-19T05:42:46;18.60;99.90
16263;DHT22;8239;48.594;8.598;2023-06-19T05:45:13;18.70;99.90
16263;DHT22;8239;48.594;8.598;2023-06-19T05:47:40;18.80;99.90
16263;DHT22;8239;48.594;8.598;2023-06-19T05:50:07;18.80;99.90
16263;DHT22;8239;48.594;8.598;2023-06-19T05:52:34;18.80;99.90
16263;DHT22;8239;48.594;8.598;2023-06-19T05:55:01;18.90;99.90
16263;DHT22;8239;48.594;8.598;2023-06-19T05:57:29;19.00;99.90
16263;DHT22;8239;48.594;8.598;2023-06-19T05:59:57;19.00;99.90
16263;DHT22;8239;48.594;8.598;2023-06-19T06:02:24;19.10;99.90
16263;DHT22;8239;48.594;8.598;2023-06-19T06:04:54;19.30;99.90
16263;DHT22;8239;48.594;8.598;2023-06-19T06:07:22;19.50;99.90
16263;DHT22;8239;48.594;8.598;2023-06-19T06:09:48;19.70;99.90
16263;DHT22;8239;48.594;8.598;2023-06-19T06:12:15;19.90;99.90
16263;DHT22;8239;48.594;8.598;2023-06-19T06:14:44;20.00;99.90
16263;DHT22;8239;48.594;8.598;2023-06-19T06:17:11;20.30;99.90
16263;DHT22;8239;48.594;8.598;2023-06-19T06:19:38;20.60;99.90
16263;DHT22;8239;48.594;8.598;2023-06-19T06:22:05;20.90;99.90
16263;DHT22;8239;48.594;8.598;2023-06-19T06:24:32;21.10;99.90
16263;DHT22;8239;48.594;8.598;2023-06-19T06:26:59;21.30;99.90
16263;DHT22;8239;48.594;8.598;2023-06-19T06:29:26;21.50;99.90
16263;DHT22;8239;48.594;8.598;2023-06-19T06:32:03;21.50;99.90
16263;DHT22;8239;48.594;8.598;2023-06-19T06:34:31;21.60;99.90
16263;DHT22;8239;48.594;8.598;2023-06-19T06:36:58;21.60;99.90
16263;DHT22;8239;48.594;8.598;2023-06-19T06:39:25;21.70;99.90
16263;DHT22;8239;48.594;8.598;2023-06-19T06:41:52;21.80;99.90
16263;DHT22;8239;48.594;8.598;2023-06-19T06:44:19;21.80;99.90
16263;DHT22;8239;48.594;8.598;2023-06-19T06:46:46;21.80;99.90
16263;DHT22;8239;48.594;8.598;2023-06-19T06:49:15;21.90;99.90
16263;DHT22;8239;48.594;8.598;2023-06-19T06:51:45;22.20;99.90
16263;DHT22;8239;48.594;8.598;2023-06-19T06:54:14;22.50;99.90
16263;DHT22;8239;48.594;8.598;2023-06-19T06:56:42;23.30;99.80
16263;DHT22;8239;48.594;8.598;2023-06-19T06:59:13;24.00;97.50
16263;DHT22;8239;48.594;8.598;2023-06-19T07:01:41;24.50;94.00
16263;DHT22;8239;48.594;8.598;2023-06-19T07:04:08;24.70;92.50
16263;DHT22;8239;48.594;8.598;2023-06-19T07:06:36;24.80;91.80
16263;DHT22;8239;48.594;8.598;2023-06-19T07:09:03;24.90;92.10
16263;DHT22;8239;48.594;8.598;2023-06-19T07:11:30;25.20;91.20
16263;DHT22;8239;48.594;8.598;2023-06-19T07:13:57;25.60;90.50
16263;DHT22;8239;48.594;8.598;2023-06-19T07:16:24;26.20;88.20
16263;DHT22;8239;48.594;8.598;2023-06-19T07:18:51;26.80;85.50
16263;DHT22;8239;48.594;8.598;2023-06-19T07:21:18;27.50;80.80
16263;DHT22;8239;48.594;8.598;2023-06-19T07:23:46;28.00;78.50
16263;DHT22;8239;48.594;8.598;2023-06-19T07:26:14;28.50;77.20
16263;DHT22;8239;48.594;8.598;2023-06-19T07:28:41;29.40;71.00
16263;DHT22;8239;48.594;8.598;2023-06-19T07:31:08;30.20;64.70
16263;DHT22;8239;48.594;8.598;2023-06-19T07:33:35;30.90;59.20
16263;DHT22;8239;48.594;8.598;2023-06-19T07:36:02;31.60;56.10
16263;DHT22;8239;48.594;8.598;2023-06-19T07:38:29;32.40;54.30
16263;DHT22;8239;48.594;8.598;2023-06-19T07:40:57;32.80;50.50
16263;DHT22;8239;48.594;8.598;2023-06-19T07:43:24;32.70;48.80
16263;DHT22;8239;48.594;8.598;2023-06-19T07:45:51;32.70;48.80
16263;DHT22;8239;48.594;8.598;2023-06-19T07:48:18;32.40;47.70
16263;DHT22;8239;48.594;8.598;2023-06-19T07:50:45;32.30;47.10
16263;DHT22;8239;48.594;8.598;2023-06-19T07:53:12;32.40;47.30
16263;DHT22;8239;48.594;8.598;2023-06-19T07:55:39;32.10;44.80
16263;DHT22;8239;48.594;8.598;2023-06-19T07:58:07;31.60;45.60
16263;DHT22;8239;48.594;8.598;2023-06-19T08:00:34;31.40;47.00
16263;DHT22;8239;48.594;8.598;2023-06-19T08:03:02;31.60;46.80
16263;DHT22;8239;48.594;8.598;2023-06-19T08:05:30;32.10;46.20
16263;DHT22;8239;48.594;8.598;2023-06-19T08:07:58;32.40;45.70
16263;DHT22;8239;48.594;8.598;2023-06-19T08:10:25;32.50;45.20
16263;DHT22;8239;48.594;8.598;2023-06-19T08:12:52;32.70;44.80
16263;DHT22;8239;48.594;8.598;2023-06-19T08:15:20;32.70;43.50
16263;DHT22;8239;48.594;8.598;2023-06-19T08:17:47;32.70;43.80
16263;DHT22;8239;48.594;8.598;2023-06-19T08:20:15;32.90;43.80
16263;DHT22;8239;48.594;8.598;2023-06-19T08:22:42;33.10;43.20
16263;DHT22;8239;48.594;8.598;2023-06-19T08:25:09;33.40;42.90
16263;DHT22;8239;48.594;8.598;2023-06-19T08:27:36;33.60;42.60
16263;DHT22;8239;48.594;8.598;2023-06-19T08:30:03;33.80;42.80
16263;DHT22;8239;48.594;8.598;2023-06-19T08:32:31;33.90;43.00
16263;DHT22;8239;48.594;8.598;2023-06-19T08:35:00;33.80;42.90
16263;DHT22;8239;48.594;8.598;2023-06-19T08:37:26;34.00;43.70
16263;DHT22;8239;48.594;8.598;2023-06-19T08:39:53;34.50;42.60
16263;DHT22;8239;48.594;8.598;2023-06-19T08:42:21;35.00;41.40
16263;DHT22;8239;48.594;8.598;2023-06-19T08:44:48;35.40;40.70
16263;DHT22;8239;48.594;8.598;2023-06-19T08:47:16;35.80;39.50
16263;DHT22;8239;48.594;8.598;2023-06-19T08:49:44;35.50;38.60
16263;DHT22;8239;48.594;8.598;2023-06-19T08:52:12;35.10;39.30
16263;DHT22;8239;48.594;8.598;2023-06-19T08:54:38;35.10;39.20
16263;DHT22;8239;48.594;8.598;2023-06-19T08:57:10;35.00;38.30
16263;DHT22;8239;48.594;8.598;2023-06-19T08:59:37;34.90;39.00
16263;DHT22;8239;48.594;8.598;2023-06-19T09:02:05;35.00;38.00
16263;DHT22;8239;48.594;8.598;2023-06-19T09:04:32;34.90;39.60
16263;DHT22;8239;48.594;8.598;2023-06-19T09:07:02;35.30;39.80
16263;DHT22;8239;48.594;8.598;2023-06-19T09:09:30;36.20;39.00
16263;DHT22;8239;48.594;8.598;2023-06-19T09:11:59;37.20;37.40
16263;DHT22;8239;48.594;8.598;2023-06-19T09:14:33;37.70;35.70
16263;DHT22;8239;48.594;8.598;2023-06-19T09:17:02;38.00;34.80
16263;DHT22;8239;48.594;8.598;2023-06-19T09:19:29;38.20;35.10
16263;DHT22;8239;48.594;8.598;2023-06-19T09:22:01;38.00;35.10
16263;DHT22;8239;48.594;8.598;2023-06-19T09:24:35;37.30;35.70
16263;DHT22;8239;48.594;8.598;2023-06-19T09:27:08;36.50;36.40
16263;DHT22;8239;48.594;8.598;2023-06-19T09:29:38;35.70;37.50
16263;DHT22;8239;48.594;8.598;2023-06-19T09:32:16;35.00;39.00
16263;DHT22;8239;48.594;8.598;2023-06-19T09:34:43;34.70;39.10
16263;DHT22;8239;48.594;8.598;2023-06-19T09:37:11;34.10;39.70
16263;DHT22;8239;48.594;8.598;2023-06-19T09:39:39;33.30;41.10
16263;DHT22;8239;48.594;8.598;2023-06-19T09:42:08;32.80;43.00
16263;DHT22;8239;48.594;8.598;2023-06-19T09:44:40;32.80;43.10
16263;DHT22;8239;48.594;8.598;2023-06-19T09:47:13;32.50;42.90
16263;DHT22;8239;48.594;8.598;2023-06-19T09:49:48;32.60;43.70
16263;DHT22;8239;48.594;8.598;2023-06-19T09:52:17;33.10;44.10
16263;DHT22;8239;48.594;8.598;2023-06-19T09:54:47;33.90;43.40
16263;DHT22;8239;48.594;8.598;2023-06-19T09:57:16;34.80;42.30
16263;DHT22;8239;48.594;8.598;2023-06-19T09:59:46;35.70;40.40
16263;DHT22;8239;48.594;8.598;2023-06-19T10:02:15;36.50;39.00
16263;DHT22;8239;48.594;8.598;2023-06-19T10:04:44;37.20;37.30
16263;DHT22;8239;48.594;8.598;2023-06-19T10:07:19;37.70;37.40
16263;DHT22;8239;48.594;8.598;2023-06-19T10:09:57;38.00;36.00
16263;DHT22;8239;48.594;8.598;2023-06-19T10:12:37;38.00;35.00
16263;DHT22;8239;48.594;8.598;2023-06-19T10:15:26;38.20;35.10
16263;DHT22;8239;48.594;8.598;2023-06-19T10:17:59;38.30;35.10
16263;DHT22;8239;48.594;8.598;2023-06-19T10:20:28;38.40;35.00
16263;DHT22;8239;48.594;8.598;2023-06-19T10:23:03;38.30;34.70
16263;DHT22;8239;48.594;8.598;2023-06-19T10:25:32;38.00;34.70
16263;DHT22;8239;48.594;8.598;2023-06-19T10:28:00;37.60;35.40
16263;DHT22;8239;48.594;8.598;2023-06-19T10:30:28;37.50;35.80
16263;DHT22;8239;48.594;8.598;2023-06-19T10:32:55;37.60;36.00
16263;DHT22;8239;48.594;8.598;2023-06-19T10:35:23;37.70;35.70
16263;DHT22;8239;48.594;8.598;2023-06-19T10:37:51;37.80;35.50
16263;DHT22;8239;48.594;8.598;2023-06-19T10:40:19;37.60;34.80
16263;DHT22;8239;48.594;8.598;2023-06-19T10:42:46;37.30;36.50
16263;DHT22;8239;48.594;8.598;2023-06-19T10:45:14;37.00;37.30
16263;DHT22;8239;48.594;8.598;2023-06-19T10:47:43;37.10;37.30
16263;DHT22;8239;48.594;8.598;2023-06-19T10:50:11;37.40;36.70
16263;DHT22;8239;48.594;8.598;2023-06-19T10:52:42;37.50;36.30
16263;DHT22;8239;48.594;8.598;2023-06-19T10:55:10;37.40;35.50
16263;DHT22;8239;48.594;8.598;2023-06-19T10:57:39;37.10;35.20
16263;DHT22;8239;48.594;8.598;2023-06-19T11:00:07;36.70;35.40
16263;DHT22;8239;48.594;8.598;2023-06-19T11:02:40;36.50;36.30
16263;DHT22;8239;48.594;8.598;2023-06-19T11:05:09;36.30;36.20
16263;DHT22;8239;48.594;8.598;2023-06-19T11:07:36;36.00;36.20
16263;DHT22;8239;48.594;8.598;2023-06-19T11:10:04;35.30;36.70
16263;DHT22;8239;48.594;8.598;2023-06-19T11:12:32;34.70;37.40
16263;DHT22;8239;48.594;8.598;2023-06-19T11:15:03;34.10;38.20
16263;DHT22;8239;48.594;8.598;2023-06-19T11:17:31;33.30;39.20
16263;DHT22;8239;48.594;8.598;2023-06-19T11:19:58;33.20;40.70
16263;DHT22;8239;48.594;8.598;2023-06-19T11:22:36;33.50;40.50
16263;DHT22;8239;48.594;8.598;2023-06-19T11:25:04;33.90;39.50
16263;DHT22;8239;48.594;8.598;2023-06-19T11:27:31;34.10;39.40
16263;DHT22;8239;48.594;8.598;2023-06-19T11:29:59;34.60;39.20
16263;DHT22;8239;48.594;8.598;2023-06-19T11:32:32;34.80;38.90
16263;DHT22;8239;48.594;8.598;2023-06-19T11:35:05;34.60;38.40
16263;DHT22;8239;48.594;8.598;2023-06-19T11:37:34;34.60;38.90
16263;DHT22;8239;48.594;8.598;2023-06-19T11:40:01;34.60;38.40
16263;DHT22;8239;48.594;8.598;2023-06-19T11:42:45;34.80;38.30
16263;DHT22;8239;48.594;8.598;2023-06-19T11:45:15;34.50;38.20
16263;DHT22;8239;48.594;8.598;2023-06-19T11:47:45;34.00;39.00
16263;DHT22;8239;48.594;8.598;2023-06-19T11:50:12;33.40;39.30
16263;DHT22;8239;48.594;8.598;2023-06-19T11:52:42;33.00;40.00
16263;DHT22;8239;48.594;8.598;2023-06-19T11:55:09;32.90;40.30
16263;DHT22;8239;48.594;8.598;2023-06-19T11:57:36;32.90;40.70
16263;DHT22;8239;48.594;8.598;2023-06-19T12:00:14;32.80;40.90
16263;DHT22;8239;48.594;8.598;2023-06-19T12:02:44;32.80;40.50
16263;DHT22;8239;48.594;8.598;2023-06-19T12:05:12;32.90;40.70
16263;DHT22;8239;48.594;8.598;2023-06-19T12:07:39;33.60;40.60
16263;DHT22;8239;48.594;8.598;2023-06-19T12:10:07;34.10;39.80
16263;DHT22;8239;48.594;8.598;2023-06-19T12:12:37;34.50;38.60
16263;DHT22;8239;48.594;8.598;2023-06-19T12:15:05;35.00;37.00
16263;DHT22;8239;48.594;8.598;2023-06-19T12:17:32;35.00;36.60
16263;DHT22;8239;48.594;8.598;2023-06-19T12:20:01;35.00;36.20
16263;DHT22;8239;48.594;8.598;2023-06-19T12:22:31;34.80;36.60
16263;DHT22;8239;48.594;8.598;2023-06-19T12:24:58;34.60;36.70
16263;DHT22;8239;48.594;8.598;2023-06-19T12:27:25;34.20;37.10
16263;DHT22;8239;48.594;8.598;2023-06-19T12:29:52;34.10;37.90
16263;DHT22;8239;48.594;8.598;2023-06-19T12:32:19;33.70;37.50
16263;DHT22;8239;48.594;8.598;2023-06-19T12:34:47;33.70;38.10
16263;DHT22;8239;48.594;8.598;2023-06-19T12:37:16;33.90;38.10
16263;DHT22;8239;48.594;8.598;2023-06-19T12:39:43;34.20;37.80
16263;DHT22;8239;48.594;8.598;2023-06-19T12:42:10;34.40;37.40
16263;DHT22;8239;48.594;8.598;2023-06-19T12:44:39;34.40;36.90
16263;DHT22;8239;48.594;8.598;2023-06-19T12:47:06;34.20;37.40
16263;DHT22;8239;48.594;8.598;2023-06-19T12:49:33;33.90;37.60
16263;DHT22;8239;48.594;8.598;2023-06-19T12:52:00;34.00;38.20
16263;DHT22;8239;48.594;8.598;2023-06-19T12:54:28;34.40;38.50
16263;DHT22;8239;48.594;8.598;2023-06-19T12:56:56;34.70;37.30
16263;DHT22;8239;48.594;8.598;2023-06-19T12:59:22;34.90;37.50
16263;DHT22;8239;48.594;8.598;2023-06-19T13:01:50;35.30;36.30
16263;DHT22;8239;48.594;8.598;2023-06-19T13:04:17;35.00;36.50
16263;DHT22;8239;48.594;8.598;2023-06-19T13:06:44;35.00;37.00
16263;DHT22;8239;48.594;8.598;2023-06-19T13:09:11;35.00;36.80
16263;DHT22;8239;48.594;8.598;2023-06-19T13:11:39;34.60;36.60
16263;DHT22;8239;48.594;8.598;2023-06-19T13:14:09;34.40;37.20
16263;DHT22;8239;48.594;8.598;2023-06-19T13:16:36;34.40;38.10
16263;DHT22;8239;48.594;8.598;2023-06-19T13:19:03;34.60;37.50
16263;DHT22;8239;48.594;8.598;2023-06-19T13:21:30;34.60;37.30
16263;DHT22;8239;48.594;8.598;2023-06-19T13:24:01;34.50;38.00
16263;DHT22;8239;48.594;8.598;2023-06-19T13:26:28;34.40;37.70
16263;DHT22;8239;48.594;8.598;2023-06-19T13:28:56;34.20;38.10
16263;DHT22;8239;48.594;8.598;2023-06-19T13:31:24;33.70;38.70
16263;DHT22;8239;48.594;8.598;2023-06-19T13:33:51;33.60;38.50
16263;DHT22;8239;48.594;8.598;2023-06-19T13:36:18;33.70;39.00
16263;DHT22;8239;48.594;8.598;2023-06-19T13:38:45;33.60;39.30
16263;DHT22;8239;48.594;8.598;2023-06-19T13:41:12;33.20;38.40
16263;DHT22;8239;48.594;8.598;2023-06-19T13:43:39;33.20;39.20
16263;DHT22;8239;48.594;8.598;2023-06-19T13:46:12;33.20;40.10
16263;DHT22;8239;48.594;8.598;2023-06-19T13:48:42;33.40;39.50
16263;DHT22;8239;48.594;8.598;2023-06-19T13:51:10;33.90;40.10
16263;DHT22;8239;48.594;8.598;2023-06-19T13:53:36;34.70;38.90
16263;DHT22;8239;48.594;8.598;2023-06-19T13:56:04;35.40;38.60
16263;DHT22;8239;48.594;8.598;2023-06-19T13:58:31;36.20;37.40
16263;DHT22;8239;48.594;8.598;2023-06-19T14:00:57;36.50;36.40
16263;DHT22;8239;48.594;8.598;2023-06-19T14:03:26;36.50;36.50
16263;DHT22;8239;48.594;8.598;2023-06-19T14:05:53;36.50;36.60
16263;DHT22;8239;48.594;8.598;2023-06-19T14:08:20;36.30;36.40
16263;DHT22;8239;48.594;8.598;2023-06-19T14:10:47;36.10;36.80
16263;DHT22;8239;48.594;8.598;2023-06-19T14:13:14;36.00;36.90
16263;DHT22;8239;48.594;8.598;2023-06-19T14:15:41;36.20;35.90
16263;DHT22;8239;48.594;8.598;2023-06-19T14:18:08;36.20;34.80
16263;DHT22;8239;48.594;8.598;2023-06-19T14:20:37;36.30;35.40
16263;DHT22;8239;48.594;8.598;2023-06-19T14:23:04;36.30;36.40
16263;DHT22;8239;48.594;8.598;2023-06-19T14:25:31;36.40;35.40
16263;DHT22;8239;48.594;8.598;2023-06-19T14:27:58;36.40;34.30
16263;DHT22;8239;48.594;8.598;2023-06-19T14:30:25;36.20;34.00
16263;DHT22;8239;48.594;8.598;2023-06-19T14:32:52;35.80;35.00
16263;DHT22;8239;48.594;8.598;2023-06-19T14:35:19;35.20;35.10
16263;DHT22;8239;48.594;8.598;2023-06-19T14:37:48;34.80;36.70
16263;DHT22;8239;48.594;8.598;2023-06-19T14:40:15;34.60;37.10
16263;DHT22;8239;48.594;8.598;2023-06-19T14:42:42;34.40;39.60
16263;DHT22;8239;48.594;8.598;2023-06-19T14:45:12;34.20;42.80
16263;DHT22;8239;48.594;8.598;2023-06-19T14:47:39;34.00;44.00
16263;DHT22;8239;48.594;8.598;2023-06-19T14:50:07;33.90;44.00
16263;DHT22;8239;48.594;8.598;2023-06-19T14:52:34;33.70;43.70
16263;DHT22;8239;48.594;8.598;2023-06-19T14:55:03;33.60;44.60
16263;DHT22;8239;48.594;8.598;2023-06-19T14:57:30;33.50;45.30
16263;DHT22;8239;48.594;8.598;2023-06-19T14:59:57;33.50;46.00
16263;DHT22;8239;48.594;8.598;2023-06-19T15:02:24;33.50;46.40
16263;DHT22;8239;48.594;8.598;2023-06-19T15:04:51;33.50;46.60
16263;DHT22;8239;48.594;8.598;2023-06-19T15:07:18;33.60;47.00
16263;DHT22;8239;48.594;8.598;2023-06-19T15:09:45;33.80;46.80
16263;DHT22;8239;48.594;8.598;2023-06-19T15:12:14;34.00;46.70
16263;DHT22;8239;48.594;8.598;2023-06-19T15:14:41;34.40;47.10
16263;DHT22;8239;48.594;8.598;2023-06-19T15:17:08;34.80;46.60
16263;DHT22;8239;48.594;8.598;2023-06-19T15:19:34;35.00;46.10
16263;DHT22;8239;48.594;8.598;2023-06-19T15:22:02;35.10;45.60
16263;DHT22;8239;48.594;8.598;2023-06-19T15:24:29;35.10;45.80
16263;DHT22;8239;48.594;8.598;2023-06-19T15:26:55;35.20;45.20
16263;DHT22;8239;48.594;8.598;2023-06-19T15:29:26;35.20;45.10
16263;DHT22;8239;48.594;8.598;2023-06-19T15:31:56;35.20;44.90
16263;DHT22;8239;48.594;8.598;2023-06-19T15:34:23;35.10;44.90
16263;DHT22;8239;48.594;8.598;2023-06-19T15:36:50;35.10;45.20
16263;DHT22;8239;48.594;8.598;2023-06-19T15:39:17;35.00;45.40
16263;DHT22;8239;48.594;8.598;2023-06-19T15:41:44;35.00;45.40
16263;DHT22;8239;48.594;8.598;2023-06-19T15:44:13;34.70;45.00
16263;DHT22;8239;48.594;8.598;2023-06-19T15:46:41;34.30;45.40
16263;DHT22;8239;48.594;8.598;2023-06-19T15:49:11;34.00;46.20